createdAt,value
2022-12-24T00:00:37.253Z,17.10
2022-12-24T00:01:39.749Z,15.15
2022-12-24T00:02:42.340Z,13.68
2022-12-24T00:03:44.803Z,14.52
2022-12-24T00:04:47.229Z,19.23
2022-12-24T00:05:50.267Z,14.05
2022-12-24T00:06:52.860Z,15.23
2022-12-24T00:07:55.311Z,15.02
2022-12-24T00:08:58.041Z,12.82
2022-12-24T00:10:00.465Z,14.82
2022-12-24T00:11:02.938Z,14.50
2022-12-24T00:12:05.827Z,14.60
2022-12-24T00:13:08.355Z,12.45
2022-12-24T00:14:10.779Z,17.55
2022-12-24T00:15:13.122Z,15.88
2022-12-24T00:16:16.120Z,21.02
2022-12-24T00:17:18.608Z,63.92
2022-12-24T00:18:20.989Z,49.38
2022-12-24T00:19:23.400Z,25.17
2022-12-24T00:20:25.751Z,43.75
2022-12-24T00:21:28.150Z,72.90
2022-12-24T00:22:30.598Z,47.38
2022-12-24T00:23:34.182Z,27.77
2022-12-24T00:24:36.699Z,27.38
2022-12-24T00:25:39.047Z,22.25
2022-12-24T00:26:41.493Z,20.08
2022-12-24T00:27:43.897Z,34.10
2022-12-24T00:28:46.315Z,19.65
2022-12-24T00:29:53.688Z,16.90
2022-12-24T00:30:56.093Z,21.92
2022-12-24T00:31:59.460Z,16.40
2022-12-24T00:33:01.838Z,13.88
2022-12-24T00:34:04.221Z,19.75
2022-12-24T00:35:07.419Z,14.40
2022-12-24T00:36:10.348Z,15.25
2022-12-24T00:37:13.173Z,13.52
2022-12-24T00:38:15.745Z,14.35
2022-12-24T00:39:18.564Z,12.02
2022-12-24T00:40:21.016Z,14.32
2022-12-24T00:41:28.824Z,13.18
2022-12-24T00:42:31.280Z,26.38
2022-12-24T00:43:33.767Z,104.75
2022-12-24T00:44:36.150Z,51.35
2022-12-24T00:45:38.545Z,115.55
2022-12-24T00:46:42.705Z,164.82
2022-12-24T00:47:45.355Z,113.45
2022-12-24T00:48:48.660Z,73.30
2022-12-24T00:49:50.987Z,41.10
2022-12-24T00:50:54.323Z,33.47
2022-12-24T00:51:56.926Z,37.53
2022-12-24T00:52:59.339Z,36.63
2022-12-24T00:54:03.463Z,29.00
2022-12-24T00:55:06.869Z,32.15
2022-12-24T00:56:09.497Z,31.45
2022-12-24T00:57:12.127Z,26.45
2022-12-24T00:58:14.553Z,29.80
2022-12-24T00:59:16.958Z,28.90
2022-12-24T01:00:19.819Z,21.55
2022-12-24T01:01:24.152Z,31.42
2022-12-24T01:02:27.056Z,24.48
2022-12-24T01:03:35.746Z,20.90
2022-12-24T01:04:56.783Z,21.45
2022-12-24T01:06:00.444Z,18.65
2022-12-24T01:07:03.107Z,16.30
2022-12-24T01:08:05.579Z,23.05
2022-12-24T01:09:08.123Z,24.65
2022-12-24T01:10:13.354Z,24.67
2022-12-24T01:11:15.869Z,19.10
2022-12-24T01:12:18.269Z,18.98
2022-12-24T01:13:20.649Z,18.10
2022-12-24T01:14:23.084Z,18.48
2022-12-24T01:15:25.425Z,18.08
2022-12-24T01:16:27.944Z,16.55
2022-12-24T01:17:33.096Z,15.95
2022-12-24T01:18:35.679Z,15.50
2022-12-24T01:19:38.101Z,13.90
2022-12-24T01:20:40.805Z,59.08
2022-12-24T01:21:43.264Z,88.70
2022-12-24T01:22:45.820Z,103.30
2022-12-24T01:23:49.301Z,124.43
2022-12-24T01:24:51.903Z,113.78
2022-12-24T01:25:54.505Z,159.20
2022-12-24T01:26:56.929Z,107.82
2022-12-24T01:27:59.363Z,79.28
2022-12-24T01:29:01.818Z,63.65
2022-12-24T01:30:06.239Z,44.30
2022-12-24T01:31:19.477Z,40.85
2022-12-24T01:32:22.060Z,39.78
2022-12-24T01:33:24.492Z,33.63
2022-12-24T01:34:26.975Z,33.50
2022-12-24T01:35:29.511Z,36.60
2022-12-24T01:36:31.946Z,33.17
2022-12-24T01:37:34.292Z,60.03
2022-12-24T01:38:36.688Z,201.63
2022-12-24T01:39:39.724Z,164.15
2022-12-24T01:41:02.174Z,121.43
2022-12-24T01:42:39.092Z,83.88
2022-12-24T01:43:41.527Z,50.67
2022-12-24T01:44:48.053Z,50.25
2022-12-24T01:45:53.264Z,44.17
2022-12-24T01:47:03.037Z,37.70
2022-12-24T01:48:10.153Z,38.38
2022-12-24T01:49:16.431Z,30.30
2022-12-24T01:50:18.841Z,33.72
2022-12-24T01:51:37.148Z,33.85
2022-12-24T01:52:39.891Z,36.70
2022-12-24T01:53:48.465Z,30.55
2022-12-24T01:54:56.417Z,33.72
2022-12-24T01:55:59.375Z,25.13
2022-12-24T01:57:07.311Z,30.23
2022-12-24T01:58:11.293Z,28.15
2022-12-24T01:59:16.461Z,25.50
2022-12-24T02:00:19.997Z,19.83
2022-12-24T02:01:25.044Z,18.80
2022-12-24T02:02:28.944Z,19.80
2022-12-24T02:03:31.622Z,16.77
2022-12-24T02:04:51.043Z,18.80
2022-12-24T02:05:56.972Z,12.55
2022-12-24T02:06:59.474Z,15.95
2022-12-24T02:08:04.190Z,19.27
2022-12-24T02:09:07.244Z,13.07
2022-12-24T02:10:12.465Z,14.75
2022-12-24T02:11:19.198Z,13.95
2022-12-24T02:12:30.287Z,11.32
2022-12-24T02:13:34.527Z,17.67
2022-12-24T02:14:37.345Z,13.60
2022-12-24T02:15:51.657Z,12.80
2022-12-24T02:17:11.914Z,11.95
2022-12-24T02:18:30.833Z,9.15
2022-12-24T02:19:56.760Z,9.48
2022-12-24T02:21:19.131Z,15.93
2022-12-24T02:22:34.009Z,14.45
2022-12-24T02:23:56.049Z,11.60
2022-12-24T02:26:24.643Z,7.97
2022-12-24T02:27:56.159Z,10.65
2022-12-24T02:29:14.026Z,7.93
2022-12-24T02:30:36.169Z,9.63
2022-12-24T02:31:59.010Z,6.25
2022-12-24T02:33:29.607Z,8.85
2022-12-24T02:34:46.006Z,10.20
2022-12-24T02:35:56.102Z,10.02
2022-12-24T02:37:20.752Z,9.25
2022-12-24T02:38:52.591Z,12.73
2022-12-24T02:40:12.105Z,6.28
2022-12-24T02:41:54.115Z,105.78
2022-12-24T02:43:05.791Z,91.18
2022-12-24T02:44:08.928Z,50.03
2022-12-24T02:45:15.750Z,36.42
2022-12-24T02:46:24.191Z,26.65
2022-12-24T02:47:28.006Z,20.80
2022-12-24T02:48:32.235Z,21.40
2022-12-24T02:49:35.893Z,26.95
2022-12-24T02:50:38.327Z,22.85
2022-12-24T02:51:40.779Z,21.30
2022-12-24T02:52:45.592Z,16.48
2022-12-24T02:53:48.007Z,18.10
2022-12-24T02:54:50.383Z,17.27
2022-12-24T02:56:16.133Z,12.10
2022-12-24T02:57:25.638Z,16.80
2022-12-24T02:58:40.196Z,13.35
2022-12-24T03:00:03.873Z,15.88
2022-12-24T03:01:25.755Z,11.05
2022-12-24T03:02:55.362Z,14.38
2022-12-24T03:04:39.186Z,14.40
2022-12-24T03:05:47.822Z,11.98
2022-12-24T03:06:59.731Z,10.93
2022-12-24T03:08:05.496Z,10.00
2022-12-24T03:09:26.810Z,15.65
2022-12-24T03:10:36.535Z,10.55
2022-12-24T03:11:44.643Z,13.82
2022-12-24T03:12:55.802Z,25.67
2022-12-24T03:13:59.968Z,21.75
2022-12-24T03:15:04.577Z,34.83
2022-12-24T03:16:14.602Z,113.32
2022-12-24T03:17:19.851Z,77.95
2022-12-24T03:18:26.415Z,68.53
2022-12-24T03:19:31.402Z,50.05
2022-12-24T03:20:43.885Z,46.45
2022-12-24T03:21:48.253Z,30.70
2022-12-24T03:22:50.744Z,35.50
2022-12-24T03:23:53.224Z,34.08
2022-12-24T03:24:55.906Z,28.02
2022-12-24T03:26:01.401Z,24.50
2022-12-24T03:27:06.807Z,28.67
2022-12-24T03:28:11.760Z,29.08
2022-12-24T03:29:14.238Z,22.58
2022-12-24T03:30:18.123Z,19.35
2022-12-24T03:31:21.222Z,20.60
2022-12-24T03:32:33.109Z,20.42
2022-12-24T03:33:36.579Z,21.73
2022-12-24T03:34:39.205Z,19.40
2022-12-24T03:35:41.544Z,20.42
2022-12-24T03:36:44.563Z,15.18
2022-12-24T03:37:46.833Z,16.92
2022-12-24T03:38:49.266Z,15.23
2022-12-24T03:39:51.713Z,18.00
2022-12-24T03:40:54.255Z,17.17
2022-12-24T03:41:56.575Z,15.25
2022-12-24T03:42:59.553Z,17.67
2022-12-24T03:44:02.198Z,19.27
2022-12-24T03:45:05.142Z,18.63
2022-12-24T03:46:08.468Z,18.20
2022-12-24T03:47:10.948Z,19.20
2022-12-24T03:48:13.407Z,21.67
2022-12-24T03:49:16.046Z,18.27
2022-12-24T03:50:18.875Z,17.98
2022-12-24T03:51:24.763Z,14.45
2022-12-24T03:52:28.105Z,18.45
2022-12-24T03:53:30.654Z,14.35
2022-12-24T03:54:33.541Z,20.02
2022-12-24T03:55:36.092Z,15.57
2022-12-24T03:56:38.471Z,21.00
2022-12-24T03:57:40.815Z,17.17
2022-12-24T03:58:43.217Z,17.58
2022-12-24T03:59:45.579Z,17.48
2022-12-24T04:00:47.949Z,14.75
2022-12-24T04:01:50.754Z,16.52
2022-12-24T04:02:54.114Z,14.15
2022-12-24T04:03:56.610Z,14.35
2022-12-24T04:04:58.908Z,14.60
2022-12-24T04:06:03.612Z,16.35
2022-12-24T04:07:06.891Z,15.80
2022-12-24T04:08:09.231Z,15.73
2022-12-24T04:09:12.092Z,16.15
2022-12-24T04:10:15.534Z,14.45
2022-12-24T04:11:18.319Z,12.38
2022-12-24T04:12:20.641Z,13.35
2022-12-24T04:13:23.267Z,12.52
2022-12-24T04:14:25.693Z,16.77
2022-12-24T04:15:28.106Z,13.15
2022-12-24T04:16:30.655Z,15.60
2022-12-24T04:17:33.673Z,11.70
2022-12-24T04:18:36.997Z,11.95
2022-12-24T04:19:39.398Z,16.30
2022-12-24T04:20:41.827Z,15.23
2022-12-24T04:21:44.230Z,12.77
2022-12-24T04:22:46.485Z,11.70
2022-12-24T04:23:48.892Z,14.32
2022-12-24T04:24:51.238Z,14.43
2022-12-24T04:25:53.727Z,13.45
2022-12-24T04:26:56.030Z,11.95
2022-12-24T04:27:58.401Z,13.57
2022-12-24T04:29:00.688Z,12.60
2022-12-24T04:30:03.201Z,13.27
2022-12-24T04:31:11.846Z,14.10
2022-12-24T04:32:14.197Z,11.75
2022-12-24T04:33:16.595Z,11.77
2022-12-24T04:34:18.923Z,13.57
2022-12-24T04:35:21.276Z,12.75
2022-12-24T04:36:23.945Z,13.18
2022-12-24T04:37:26.337Z,11.73
2022-12-24T04:38:29.890Z,13.68
2022-12-24T04:39:32.470Z,11.18
2022-12-24T04:40:35.305Z,9.02
2022-12-24T04:41:37.659Z,12.63
2022-12-24T04:42:40.039Z,14.50
2022-12-24T04:43:42.767Z,11.68
2022-12-24T04:44:45.040Z,11.68
2022-12-24T04:45:47.387Z,10.23
2022-12-24T04:46:49.738Z,13.68
2022-12-24T04:47:52.129Z,9.85
2022-12-24T04:48:54.880Z,12.43
2022-12-24T04:49:57.252Z,11.88
2022-12-24T04:51:05.142Z,12.45
2022-12-24T04:52:07.458Z,13.43
2022-12-24T04:53:09.880Z,14.05
2022-12-24T04:54:12.289Z,12.65
2022-12-24T04:55:14.763Z,10.60
2022-12-24T04:56:20.238Z,13.10
2022-12-24T04:57:22.657Z,13.30
2022-12-24T04:58:25.647Z,12.88
2022-12-24T04:59:27.979Z,11.30
2022-12-24T05:00:30.295Z,12.30
2022-12-24T05:01:33.236Z,12.50
2022-12-24T05:02:36.080Z,12.77
2022-12-24T05:03:38.553Z,8.75
2022-12-24T05:04:40.971Z,10.25
2022-12-24T05:05:43.296Z,13.98
2022-12-24T05:06:45.582Z,12.27
2022-12-24T05:07:47.945Z,12.40
2022-12-24T05:08:50.283Z,8.88
2022-12-24T05:09:52.628Z,10.20
2022-12-24T05:10:58.609Z,15.43
2022-12-24T05:12:01.455Z,11.15
2022-12-24T05:13:03.861Z,11.73
2022-12-24T05:14:06.181Z,7.90
2022-12-24T05:15:08.781Z,11.23
2022-12-24T05:16:12.706Z,9.63
2022-12-24T05:17:15.212Z,7.82
2022-12-24T05:18:17.823Z,8.70
2022-12-24T05:19:20.118Z,9.63
2022-12-24T05:20:22.468Z,9.05
2022-12-24T05:21:25.375Z,9.70
2022-12-24T05:22:46.463Z,11.68
2022-12-24T05:24:08.198Z,9.88
2022-12-24T05:26:50.381Z,9.32
2022-12-24T05:27:54.581Z,12.38
2022-12-24T05:28:58.711Z,13.48
2022-12-24T05:30:01.060Z,9.73
2022-12-24T05:31:03.431Z,7.00
2022-12-24T05:32:05.711Z,8.75
2022-12-24T05:33:08.020Z,12.85
2022-12-24T05:34:11.163Z,10.60
2022-12-24T05:35:13.886Z,21.17
2022-12-24T05:36:17.339Z,91.95
2022-12-24T05:37:19.661Z,104.45
2022-12-24T05:38:21.987Z,88.03
2022-12-24T05:39:24.326Z,64.45
2022-12-24T05:40:26.691Z,57.50
2022-12-24T05:41:29.353Z,51.40
2022-12-24T05:42:31.773Z,40.90
2022-12-24T05:43:34.110Z,35.30
2022-12-24T05:44:37.236Z,32.60
2022-12-24T05:45:39.616Z,30.23
2022-12-24T05:46:43.048Z,23.80
2022-12-24T05:47:45.395Z,26.90
2022-12-24T05:48:48.782Z,28.73
2022-12-24T05:49:51.475Z,22.15
2022-12-24T05:50:54.433Z,20.83
2022-12-24T05:51:56.739Z,22.45
2022-12-24T05:52:59.205Z,24.50
2022-12-24T05:54:01.644Z,17.17
2022-12-24T05:55:04.292Z,17.75
2022-12-24T05:56:13.046Z,17.42
2022-12-24T05:57:16.417Z,16.92
2022-12-24T05:58:18.679Z,18.92
2022-12-24T05:59:21.243Z,19.83
2022-12-24T06:00:23.771Z,15.13
2022-12-24T06:01:26.668Z,19.73
2022-12-24T06:02:29.281Z,19.17
2022-12-24T06:03:32.641Z,16.35
2022-12-24T06:04:35.005Z,16.27
2022-12-24T06:05:37.406Z,17.25
2022-12-24T06:06:39.719Z,20.77
2022-12-24T06:07:42.067Z,14.18
2022-12-24T06:08:44.762Z,15.18
2022-12-24T06:09:47.213Z,15.85
2022-12-24T06:10:58.313Z,13.98
2022-12-24T06:12:00.826Z,13.60
2022-12-24T06:13:03.166Z,14.48
2022-12-24T06:14:08.585Z,18.15
2022-12-24T06:15:11.028Z,74.93
2022-12-24T06:16:15.474Z,142.93
2022-12-24T06:17:18.018Z,78.95
2022-12-24T06:18:20.368Z,150.63
2022-12-24T06:19:23.271Z,182.98
2022-12-24T06:20:25.619Z,166.32
2022-12-24T06:21:28.053Z,150.93
2022-12-24T06:22:30.423Z,127.65
2022-12-24T06:23:34.884Z,89.93
2022-12-24T06:24:37.220Z,85.72
2022-12-24T06:25:39.611Z,80.20
2022-12-24T06:26:42.049Z,68.10
2022-12-24T06:27:44.390Z,67.93
2022-12-24T06:28:48.024Z,63.50
2022-12-24T06:29:50.481Z,52.22
2022-12-24T06:30:57.110Z,49.50
2022-12-24T06:32:02.788Z,46.55
2022-12-24T06:33:05.269Z,44.97
2022-12-24T06:34:07.781Z,47.30
2022-12-24T06:35:10.223Z,43.50
2022-12-24T06:36:18.374Z,44.45
2022-12-24T06:37:20.889Z,48.15
2022-12-24T06:38:23.504Z,44.90
2022-12-24T06:39:25.913Z,42.30
2022-12-24T06:40:28.583Z,41.35
2022-12-24T06:41:31.028Z,41.55
2022-12-24T06:42:33.623Z,40.38
2022-12-24T06:43:36.108Z,44.08
2022-12-24T06:44:38.423Z,40.55
2022-12-24T06:45:44.628Z,40.40
2022-12-24T06:46:47.015Z,39.10
2022-12-24T06:47:49.540Z,38.28
2022-12-24T06:48:52.013Z,43.78
2022-12-24T06:49:54.358Z,38.88
2022-12-24T06:50:56.717Z,36.08
2022-12-24T06:51:58.991Z,35.90
2022-12-24T06:53:01.435Z,36.53
2022-12-24T06:54:04.275Z,34.78
2022-12-24T06:55:07.360Z,35.65
2022-12-24T06:56:12.917Z,35.65
2022-12-24T06:57:15.626Z,32.28
2022-12-24T06:58:18.077Z,32.05
2022-12-24T06:59:20.841Z,33.88
2022-12-24T07:00:23.541Z,34.75
2022-12-24T07:01:26.174Z,30.55
2022-12-24T07:02:28.689Z,31.55
2022-12-24T07:03:32.943Z,32.13
2022-12-24T07:04:35.764Z,34.90
2022-12-24T07:05:38.338Z,28.65
2022-12-24T07:06:41.997Z,29.98
2022-12-24T07:07:45.585Z,29.70
2022-12-24T07:08:48.213Z,28.90
2022-12-24T07:09:51.751Z,29.45
2022-12-24T07:10:54.738Z,40.83
2022-12-24T07:11:57.349Z,32.55
2022-12-24T07:13:00.022Z,29.80
2022-12-24T07:14:02.500Z,26.38
2022-12-24T07:15:05.645Z,33.38
2022-12-24T07:16:09.428Z,30.17
2022-12-24T07:17:12.575Z,29.95
2022-12-24T07:18:15.130Z,36.80
2022-12-24T07:19:17.750Z,27.73
2022-12-24T07:20:20.291Z,24.52
2022-12-24T07:21:23.005Z,23.42
2022-12-24T07:22:25.541Z,23.55
2022-12-24T07:23:27.972Z,23.98
2022-12-24T07:24:30.355Z,25.02
2022-12-24T07:25:32.696Z,25.90
2022-12-24T07:26:35.166Z,31.85
2022-12-24T07:27:37.958Z,30.75
2022-12-24T07:28:40.425Z,27.10
2022-12-24T07:29:43.118Z,24.02
2022-12-24T07:30:45.572Z,31.13
2022-12-24T07:31:47.921Z,26.77
2022-12-24T07:32:50.407Z,32.10
2022-12-24T07:33:52.745Z,31.60
2022-12-24T07:34:55.070Z,23.27
2022-12-24T07:36:05.860Z,28.85
2022-12-24T07:37:08.572Z,27.52
2022-12-24T07:38:10.935Z,24.58
2022-12-24T07:39:13.268Z,21.35
2022-12-24T07:40:16.095Z,25.98
2022-12-24T07:41:18.791Z,23.20
2022-12-24T07:42:22.000Z,26.63
2022-12-24T07:43:26.861Z,25.85
2022-12-24T07:44:29.578Z,26.35
2022-12-24T07:45:32.165Z,26.23
2022-12-24T07:46:35.602Z,25.38
2022-12-24T07:47:38.155Z,30.38
2022-12-24T07:48:40.652Z,26.00
2022-12-24T07:49:42.974Z,27.73
2022-12-24T07:50:47.976Z,23.27
2022-12-24T07:51:50.300Z,25.40
2022-12-24T07:52:53.328Z,24.38
2022-12-24T07:53:56.243Z,25.67
2022-12-24T07:54:58.605Z,27.20
2022-12-24T07:56:00.985Z,28.33
2022-12-24T07:57:03.622Z,29.30
2022-12-24T07:58:05.989Z,24.65
2022-12-24T07:59:08.742Z,26.20
2022-12-24T08:00:11.626Z,25.08
2022-12-24T08:01:16.835Z,26.67
2022-12-24T08:02:19.507Z,25.92
2022-12-24T08:03:22.476Z,24.77
2022-12-24T08:04:24.953Z,28.40
2022-12-24T08:05:27.683Z,22.33
2022-12-24T08:06:30.108Z,29.25
2022-12-24T08:07:32.470Z,22.38
2022-12-24T08:08:34.845Z,28.10
2022-12-24T08:09:39.721Z,24.40
2022-12-24T08:10:44.171Z,30.60
2022-12-24T08:11:51.905Z,31.30
2022-12-24T08:12:55.076Z,29.25
2022-12-24T08:13:57.435Z,25.92
2022-12-24T08:14:59.835Z,27.40
2022-12-24T08:16:02.373Z,27.30
2022-12-24T08:17:05.661Z,28.10
2022-12-24T08:18:08.677Z,25.95
2022-12-24T08:19:10.974Z,25.20
2022-12-24T08:20:13.520Z,22.58
2022-12-24T08:21:16.304Z,25.50
2022-12-24T08:22:19.533Z,23.33
2022-12-24T08:23:23.280Z,22.58
2022-12-24T08:24:25.648Z,27.55
2022-12-24T08:25:28.001Z,26.58
2022-12-24T08:26:31.327Z,32.20
2022-12-24T08:27:34.425Z,23.45
2022-12-24T08:28:37.772Z,28.27
2022-12-24T08:29:40.257Z,20.88
2022-12-24T08:30:43.776Z,22.67
2022-12-24T08:31:46.166Z,24.65
2022-12-24T08:32:49.150Z,26.75
2022-12-24T08:33:51.690Z,20.80
2022-12-24T08:34:54.479Z,27.00
2022-12-24T08:35:57.023Z,113.00
2022-12-24T08:36:59.345Z,125.80
2022-12-24T08:38:01.682Z,95.70
2022-12-24T08:39:04.585Z,59.67
2022-12-24T08:40:07.527Z,36.05
2022-12-24T08:41:09.795Z,36.28
2022-12-24T08:42:12.286Z,36.25
2022-12-24T08:43:15.720Z,37.00
2022-12-24T08:44:18.139Z,58.30
2022-12-24T08:45:20.938Z,50.83
2022-12-24T08:46:23.311Z,66.78
2022-12-24T08:47:25.853Z,93.75
2022-12-24T08:48:28.260Z,92.13
2022-12-24T08:49:30.649Z,84.05
2022-12-24T08:50:33.294Z,97.03
2022-12-24T08:51:35.819Z,122.45
2022-12-24T08:52:38.677Z,118.22
2022-12-24T08:53:41.176Z,123.53
2022-12-24T08:54:43.564Z,125.85
2022-12-24T08:55:50.361Z,134.18
2022-12-24T08:56:57.970Z,139.43
2022-12-24T08:58:01.168Z,129.25
2022-12-24T08:59:03.623Z,112.15
2022-12-24T09:00:07.208Z,104.95
2022-12-24T09:01:18.466Z,124.78
2022-12-24T09:02:24.178Z,100.18
2022-12-24T09:03:28.296Z,83.60
2022-12-24T09:04:31.466Z,114.63
2022-12-24T09:05:34.787Z,83.78
2022-12-24T09:06:37.434Z,76.30
2022-12-24T09:07:41.111Z,65.00
2022-12-24T09:08:43.810Z,89.65
2022-12-24T09:09:46.415Z,55.22
2022-12-24T09:10:48.777Z,65.47
2022-12-24T09:11:51.370Z,64.22
2022-12-24T09:12:54.031Z,62.88
2022-12-24T09:13:56.547Z,50.67
2022-12-24T09:15:03.802Z,87.20
2022-12-24T09:16:07.988Z,69.22
2022-12-24T09:17:10.412Z,73.28
2022-12-24T09:18:12.750Z,59.03
2022-12-24T09:19:15.212Z,81.18
2022-12-24T09:20:17.682Z,63.92
2022-12-24T09:21:20.056Z,65.45
2022-12-24T09:22:22.472Z,67.60
2022-12-24T09:23:25.062Z,55.95
2022-12-24T09:24:27.586Z,57.15
2022-12-24T09:25:29.999Z,69.55
2022-12-24T09:26:32.560Z,60.70
2022-12-24T09:27:35.008Z,60.28
2022-12-24T09:28:37.540Z,52.08
2022-12-24T09:29:40.726Z,66.40
2022-12-24T09:30:43.381Z,60.38
2022-12-24T09:31:45.821Z,64.35
2022-12-24T09:32:48.197Z,58.97
2022-12-24T09:33:52.006Z,60.20
2022-12-24T09:34:54.504Z,58.67
2022-12-24T09:35:57.214Z,62.35
2022-12-24T09:37:00.623Z,57.22
2022-12-24T09:38:03.195Z,65.55
2022-12-24T09:39:05.776Z,71.75
2022-12-24T09:40:22.584Z,63.65
2022-12-24T09:41:43.029Z,67.40
2022-12-24T09:42:55.035Z,84.30
2022-12-24T09:44:04.510Z,71.32
2022-12-24T09:45:27.890Z,65.68
2022-12-24T09:46:41.123Z,51.58
2022-12-24T09:47:54.119Z,50.00
2022-12-24T09:49:03.367Z,53.47
2022-12-24T09:50:28.973Z,70.50
2022-12-24T09:52:08.772Z,61.55
2022-12-24T09:53:21.862Z,50.40
2022-12-24T09:54:41.982Z,62.33
2022-12-24T09:55:52.105Z,42.03
2022-12-24T09:56:57.147Z,51.67
2022-12-24T09:58:02.290Z,46.97
2022-12-24T09:59:06.625Z,46.70
2022-12-24T10:00:23.403Z,48.50
2022-12-24T10:01:27.145Z,44.00
2022-12-24T10:02:29.728Z,49.45
2022-12-24T10:03:32.706Z,50.35
2022-12-24T10:04:35.489Z,48.45
2022-12-24T10:05:45.320Z,52.17
2022-12-24T10:07:37.635Z,52.75
2022-12-24T10:09:04.734Z,46.67
2022-12-24T10:10:29.592Z,38.38
2022-12-24T10:11:35.623Z,44.90
2022-12-24T10:13:18.496Z,48.05
2022-12-24T10:14:41.907Z,59.58
2022-12-24T10:15:57.030Z,40.53
2022-12-24T10:17:27.376Z,35.03
2022-12-24T10:19:05.509Z,31.00
2022-12-24T10:20:24.516Z,34.00
2022-12-24T10:21:48.649Z,28.63
2022-12-24T10:22:55.576Z,27.15
2022-12-24T10:24:15.390Z,32.45
2022-12-24T10:25:20.637Z,23.35
2022-12-24T10:26:52.659Z,23.95
2022-12-24T10:27:58.721Z,22.88
2022-12-24T10:29:09.457Z,14.82
2022-12-24T10:30:24.827Z,19.00
2022-12-24T10:31:32.592Z,19.77
2022-12-24T10:32:37.579Z,13.55
2022-12-24T10:33:47.665Z,20.17
2022-12-24T10:35:02.451Z,25.35
2022-12-24T10:36:12.079Z,21.67
2022-12-24T10:37:19.909Z,34.75
2022-12-24T10:38:22.472Z,25.05
2022-12-24T10:39:27.343Z,17.23
2022-12-24T10:40:43.844Z,24.88
2022-12-24T10:41:49.709Z,17.27
2022-12-24T10:42:52.177Z,24.48
2022-12-24T10:43:55.104Z,13.07
2022-12-24T10:45:02.714Z,19.10
2022-12-24T10:46:12.122Z,16.92
2022-12-24T10:47:15.379Z,12.65
2022-12-24T10:48:50.959Z,12.18
2022-12-24T10:50:05.744Z,14.35
2022-12-24T10:51:19.587Z,15.60
2022-12-24T10:52:25.902Z,17.58
2022-12-24T10:53:44.124Z,16.92
2022-12-24T10:55:07.524Z,18.05
2022-12-24T10:56:12.994Z,15.15
2022-12-24T10:57:26.970Z,21.15
2022-12-24T10:58:29.398Z,26.73
2022-12-24T10:59:42.551Z,18.33
2022-12-24T11:00:52.933Z,14.70
2022-12-24T11:01:58.258Z,23.70
2022-12-24T11:03:12.847Z,16.33
2022-12-24T11:04:17.821Z,16.52
2022-12-24T11:05:30.416Z,11.38
2022-12-24T11:06:32.754Z,16.83
2022-12-24T11:07:35.296Z,18.17
2022-12-24T11:08:43.883Z,15.63
2022-12-24T11:09:56.754Z,15.95
2022-12-24T11:11:05.547Z,17.40
2022-12-24T11:12:21.535Z,19.35
2022-12-24T11:13:37.508Z,16.52
2022-12-24T11:14:41.492Z,22.08
2022-12-24T11:15:43.979Z,19.70
2022-12-24T11:16:52.144Z,19.02
2022-12-24T11:18:12.867Z,15.07
2022-12-24T11:19:19.203Z,22.77
2022-12-24T11:20:26.895Z,12.85
2022-12-24T11:21:33.342Z,14.52
2022-12-24T11:22:36.444Z,15.00
2022-12-24T11:23:39.118Z,18.95
2022-12-24T11:24:45.036Z,16.55
2022-12-24T11:25:51.755Z,16.55
2022-12-24T11:26:54.895Z,17.40
2022-12-24T11:28:19.841Z,15.50
2022-12-24T11:29:26.155Z,16.02
2022-12-24T11:30:31.959Z,13.57
2022-12-24T11:31:37.557Z,13.98
2022-12-24T11:32:41.247Z,18.38
2022-12-24T11:33:49.516Z,13.48
2022-12-24T11:34:52.184Z,25.05
2022-12-24T11:36:02.996Z,15.25
2022-12-24T11:37:16.271Z,15.85
2022-12-24T11:38:25.626Z,22.83
2022-12-24T11:39:28.053Z,18.92
2022-12-24T11:40:47.343Z,13.15
2022-12-24T11:41:53.446Z,14.10
2022-12-24T11:43:00.892Z,19.80
2022-12-24T11:44:03.837Z,11.38
2022-12-24T11:45:17.057Z,16.95
2022-12-24T11:46:22.552Z,12.95
2022-12-24T11:47:40.381Z,13.27
2022-12-24T11:48:43.460Z,16.95
2022-12-24T11:49:45.862Z,17.35
2022-12-24T11:50:58.160Z,13.05
2022-12-24T11:52:12.083Z,13.60
2022-12-24T11:53:25.971Z,12.23
2022-12-24T11:54:31.305Z,11.30
2022-12-24T11:55:50.497Z,17.48
2022-12-24T11:56:57.064Z,20.42
2022-12-24T11:58:31.216Z,16.63
2022-12-24T11:59:40.104Z,12.55
2022-12-24T12:00:44.972Z,16.17
2022-12-24T12:02:00.145Z,17.48
2022-12-24T12:03:04.308Z,12.98
2022-12-24T12:04:16.732Z,10.25
2022-12-24T12:05:25.386Z,12.80
2022-12-24T12:06:39.786Z,11.68
2022-12-24T12:07:46.199Z,13.00
2022-12-24T12:08:56.349Z,17.35
2022-12-24T12:10:20.355Z,15.63
2022-12-24T12:11:26.117Z,16.67
2022-12-24T12:12:33.899Z,23.48
2022-12-24T12:13:39.787Z,16.50
2022-12-24T12:14:55.769Z,59.30
2022-12-24T12:16:19.398Z,55.28
2022-12-24T12:17:30.400Z,44.47
2022-12-24T12:18:39.607Z,30.17
2022-12-24T12:20:20.698Z,24.10
2022-12-24T12:21:30.153Z,22.30
2022-12-24T12:22:38.541Z,22.88
2022-12-24T12:23:47.981Z,26.33
2022-12-24T12:24:56.347Z,28.33
2022-12-24T12:26:11.588Z,26.25
2022-12-24T12:27:36.711Z,20.35
2022-12-24T12:28:58.173Z,19.70
2022-12-24T12:30:06.104Z,16.80
2022-12-24T12:31:16.088Z,16.35
2022-12-24T12:32:31.760Z,19.17
2022-12-24T12:33:41.613Z,16.77
2022-12-24T12:34:55.332Z,18.33
2022-12-24T12:36:01.558Z,16.05
2022-12-24T12:37:20.743Z,16.30
2022-12-24T12:38:26.100Z,12.05
2022-12-24T12:39:31.722Z,15.80
2022-12-24T12:40:58.876Z,11.65
2022-12-24T12:42:26.947Z,12.90
2022-12-24T12:43:32.408Z,14.90
2022-12-24T12:44:53.581Z,11.88
2022-12-24T12:46:28.311Z,12.32
2022-12-24T12:47:41.081Z,14.60
2022-12-24T12:49:10.287Z,12.15
2022-12-24T12:50:44.712Z,12.18
2022-12-24T12:52:14.109Z,14.63
2022-12-24T12:53:24.374Z,11.57
2022-12-24T12:54:48.444Z,12.30
2022-12-24T12:56:09.139Z,21.27
2022-12-24T12:57:15.442Z,16.88
2022-12-24T12:58:20.610Z,16.38
2022-12-24T12:59:35.466Z,15.52
2022-12-24T13:00:42.200Z,9.43
2022-12-24T13:01:54.259Z,12.55
2022-12-24T13:03:21.793Z,13.43
2022-12-24T13:04:48.868Z,10.38
2022-12-24T13:06:08.621Z,14.20
2022-12-24T13:07:32.720Z,11.43
2022-12-24T13:09:01.037Z,10.23
2022-12-24T13:10:21.474Z,15.07
2022-12-24T13:11:54.343Z,11.88
2022-12-24T13:13:28.224Z,15.18
2022-12-24T13:14:52.945Z,9.65
2022-12-24T13:16:20.655Z,8.88
2022-12-24T13:17:54.600Z,10.68
2022-12-24T13:19:09.643Z,10.20
2022-12-24T13:20:25.821Z,9.90
2022-12-24T13:21:30.221Z,9.60
2022-12-24T13:22:34.470Z,12.15
2022-12-24T13:23:37.061Z,12.35
2022-12-24T13:24:39.478Z,9.68
2022-12-24T13:25:45.052Z,12.07
2022-12-24T13:27:07.032Z,10.43
2022-12-24T13:28:16.137Z,8.52
2022-12-24T13:29:36.435Z,13.70
2022-12-24T13:30:40.909Z,9.43
2022-12-24T13:31:43.660Z,12.63
2022-12-24T13:32:51.342Z,10.85
2022-12-24T13:33:59.152Z,10.85
2022-12-24T13:35:22.745Z,14.48
2022-12-24T13:36:26.089Z,9.85
2022-12-24T13:37:31.258Z,8.60
2022-12-24T13:38:43.749Z,7.20
2022-12-24T13:40:25.609Z,8.63
2022-12-24T13:41:40.653Z,8.63
2022-12-24T13:42:58.590Z,6.50
2022-12-24T13:44:06.895Z,8.07
2022-12-24T13:45:30.836Z,7.30
2022-12-24T13:46:56.826Z,7.25
2022-12-24T13:48:13.050Z,9.50
2022-12-24T13:49:27.889Z,6.93
2022-12-24T13:50:38.340Z,6.03
2022-12-24T13:51:40.886Z,8.52
2022-12-24T13:52:52.291Z,8.88
2022-12-24T13:55:06.898Z,6.15
2022-12-24T13:56:13.916Z,6.63
2022-12-24T13:57:40.329Z,9.02
2022-12-24T13:58:49.021Z,9.10
2022-12-24T14:00:00.103Z,7.28
2022-12-24T14:01:08.656Z,7.43
2022-12-24T14:02:22.494Z,8.10
2022-12-24T14:03:30.530Z,8.55
2022-12-24T14:04:35.782Z,9.80
2022-12-24T14:05:44.496Z,6.35
2022-12-24T14:06:51.815Z,5.95
2022-12-24T14:07:56.038Z,6.05
2022-12-24T14:09:05.469Z,8.18
2022-12-24T14:10:19.162Z,7.13
2022-12-24T14:11:24.983Z,7.75
2022-12-24T14:12:51.470Z,7.40
2022-12-24T14:14:09.921Z,6.35
2022-12-24T14:15:49.779Z,8.55
2022-12-24T14:16:54.043Z,5.10
2022-12-24T14:17:56.658Z,4.72
2022-12-24T14:19:14.927Z,6.03
2022-12-24T14:20:17.460Z,5.88
2022-12-24T14:21:26.714Z,5.20
2022-12-24T14:22:33.107Z,8.52
2022-12-24T14:23:49.411Z,7.88
2022-12-24T14:25:17.472Z,4.93
2022-12-24T14:26:22.868Z,5.88
2022-12-24T14:27:46.877Z,7.75
2022-12-24T14:29:02.063Z,9.05
2022-12-24T14:30:17.302Z,6.75
2022-12-24T14:31:19.868Z,8.27
2022-12-24T14:32:22.359Z,10.55